createdAt,value
2019-06-26T00:01:53.833Z,21.96
2019-06-26T00:04:21.703Z,21.93
2019-06-26T00:06:49.640Z,21.89
2019-06-26T00:09:17.865Z,21.88
2019-06-26T00:11:46.211Z,21.85
2019-06-26T00:14:14.496Z,21.80
2019-06-26T00:16:42.455Z,21.78
2019-06-26T00:19:10.328Z,21.77
2019-06-26T00:21:38.384Z,21.69
2019-06-26T00:24:06.798Z,21.52
2019-06-26T00:26:34.738Z,21.48
2019-06-26T00:29:03.265Z,21.36
2019-06-26T00:31:31.380Z,21.31
2019-06-26T00:33:59.471Z,21.34
2019-06-26T00:36:27.549Z,21.32
2019-06-26T00:38:56.017Z,21.36
2019-06-26T00:41:24.184Z,21.40
2019-06-26T00:43:52.285Z,21.40
2019-06-26T00:46:20.358Z,21.31
2019-06-26T00:48:48.800Z,21.32
2019-06-26T00:51:16.910Z,21.33
2019-06-26T00:53:44.951Z,21.38
2019-06-26T00:56:13.040Z,21.31
2019-06-26T00:58:41.431Z,21.32
2019-06-26T01:01:09.558Z,21.27
2019-06-26T01:03:37.694Z,21.25
2019-06-26T01:06:08.030Z,21.20
2019-06-26T01:08:36.157Z,21.16
2019-06-26T01:11:04.245Z,21.15
2019-06-26T01:13:32.913Z,21.09
2019-06-26T01:16:00.969Z,21.09
2019-06-26T01:18:29.284Z,21.10
2019-06-26T01:20:57.520Z,21.07
2019-06-26T01:23:25.495Z,21.09
2019-06-26T01:25:54.199Z,21.01
2019-06-26T01:28:22.037Z,20.99
2019-06-26T01:30:50.511Z,20.85
2019-06-26T01:33:18.843Z,20.79
2019-06-26T01:35:47.102Z,20.82
2019-06-26T01:38:15.239Z,20.88
2019-06-26T01:40:43.432Z,20.91
2019-06-26T01:43:11.304Z,20.90
2019-06-26T01:45:39.260Z,20.84
2019-06-26T01:48:07.557Z,20.91
2019-06-26T01:50:35.587Z,20.92
2019-06-26T01:53:03.584Z,20.82
2019-06-26T01:55:31.582Z,20.31
2019-06-26T01:58:00.722Z,20.24
2019-06-26T02:00:29.541Z,20.24
2019-06-26T02:02:57.579Z,20.13
2019-06-26T02:05:25.715Z,20.08
2019-06-26T02:07:54.233Z,20.04
2019-06-26T02:10:22.865Z,19.97
2019-06-26T02:12:51.380Z,19.93
2019-06-26T02:15:21.437Z,19.91
2019-06-26T02:17:49.828Z,19.84
2019-06-26T02:20:18.381Z,19.90
2019-06-26T02:22:49.447Z,19.88
2019-06-26T02:25:16.579Z,19.81
2019-06-26T02:27:44.671Z,19.82
2019-06-26T02:30:12.742Z,19.93
2019-06-26T02:32:40.852Z,19.89
2019-06-26T02:35:10.425Z,20.01
2019-06-26T02:37:39.316Z,19.87
2019-06-26T02:40:07.954Z,19.79
2019-06-26T02:42:36.090Z,19.79
2019-06-26T02:45:04.988Z,19.86
2019-06-26T02:47:33.164Z,19.88
2019-06-26T02:50:01.148Z,19.93
2019-06-26T02:52:29.171Z,19.95
2019-06-26T02:54:57.363Z,19.98
2019-06-26T02:57:25.607Z,19.96
2019-06-26T02:59:53.714Z,20.03
2019-06-26T03:02:22.049Z,19.99
2019-06-26T03:04:50.556Z,19.98
2019-06-26T03:07:18.398Z,20.03
2019-06-26T03:09:46.516Z,20.03
2019-06-26T03:12:15.021Z,20.03
2019-06-26T03:14:43.485Z,19.96
2019-06-26T03:17:11.651Z,19.91
2019-06-26T03:19:39.665Z,19.97
2019-06-26T03:22:08.301Z,20.02
2019-06-26T03:24:36.212Z,20.04
2019-06-26T03:27:04.226Z,20.05
2019-06-26T03:29:32.286Z,20.08
2019-06-26T03:32:00.374Z,20.07
2019-06-26T03:34:28.525Z,20.14
2019-06-26T03:36:56.957Z,20.12
2019-06-26T03:39:25.169Z,20.20
2019-06-26T03:41:53.882Z,20.22
2019-06-26T03:44:21.916Z,20.32
2019-06-26T03:46:49.996Z,20.35
2019-06-26T03:49:17.938Z,20.50
2019-06-26T03:51:46.462Z,20.64
2019-06-26T03:54:14.573Z,20.68
2019-06-26T03:56:42.573Z,20.85
2019-06-26T03:59:10.487Z,21.02
2019-06-26T04:01:38.582Z,21.27
2019-06-26T04:04:06.826Z,21.82
2019-06-26T04:06:34.877Z,22.15
2019-06-26T04:09:04.379Z,22.48
2019-06-26T04:11:33.519Z,22.71
2019-06-26T04:14:01.987Z,23.28
2019-06-26T04:16:30.055Z,23.95
2019-06-26T04:18:58.080Z,24.06
2019-06-26T04:21:26.003Z,23.96
2019-06-26T04:23:53.820Z,24.78
2019-06-26T04:26:25.369Z,25.74
2019-06-26T04:28:54.701Z,25.97
2019-06-26T04:31:22.530Z,26.41
2019-06-26T04:33:50.652Z,26.58
2019-06-26T04:36:19.378Z,27.16
2019-06-26T04:38:55.779Z,28.84
2019-06-26T04:41:24.234Z,29.14
2019-06-26T04:43:52.563Z,29.61
2019-06-26T04:46:20.905Z,30.23
2019-06-26T04:48:49.104Z,28.95
2019-06-26T04:51:16.925Z,28.98
2019-06-26T04:53:45.208Z,29.55
2019-06-26T04:56:34.218Z,29.56
2019-06-26T04:59:02.140Z,29.94
2019-06-26T05:01:30.969Z,29.45
2019-06-26T05:03:58.991Z,30.16
2019-06-26T05:06:27.326Z,30.40
2019-06-26T05:08:56.155Z,30.82
2019-06-26T05:11:24.121Z,30.97
2019-06-26T05:13:52.044Z,31.68
2019-06-26T05:16:20.702Z,32.14
2019-06-26T05:18:50.119Z,32.19
2019-06-26T05:21:24.554Z,30.73
2019-06-26T05:23:53.205Z,30.64
2019-06-26T05:26:21.061Z,31.22
2019-06-26T05:28:49.260Z,31.82
2019-06-26T05:31:17.864Z,31.31
2019-06-26T05:33:45.883Z,32.15
2019-06-26T05:36:14.005Z,30.81
2019-06-26T05:38:43.868Z,31.54
2019-06-26T05:41:13.172Z,31.49
2019-06-26T05:43:41.908Z,31.14
2019-06-26T05:46:09.767Z,32.06
2019-06-26T05:48:38.711Z,31.90
2019-06-26T05:51:06.615Z,31.24
2019-06-26T05:53:34.787Z,32.15
2019-06-26T05:56:02.934Z,31.44
2019-06-26T05:58:31.336Z,31.66
2019-06-26T06:00:59.386Z,31.76
2019-06-26T06:03:27.684Z,31.26
2019-06-26T06:05:56.624Z,31.61
2019-06-26T06:08:24.703Z,31.81
2019-06-26T06:10:53.205Z,32.28
2019-06-26T06:13:21.728Z,32.30
2019-06-26T06:15:49.861Z,31.70
2019-06-26T06:18:17.946Z,30.95
2019-06-26T06:20:45.991Z,29.30
2019-06-26T06:23:14.092Z,28.77
2019-06-26T06:25:42.038Z,28.97
2019-06-26T06:28:10.156Z,28.98
2019-06-26T06:30:38.483Z,28.83
2019-06-26T06:33:06.573Z,28.93
2019-06-26T06:35:34.664Z,28.57
2019-06-26T06:38:04.399Z,28.90
2019-06-26T06:40:32.789Z,28.85
2019-06-26T06:43:00.896Z,28.92
2019-06-26T06:45:29.704Z,29.08
2019-06-26T06:47:57.750Z,29.27
2019-06-26T06:50:25.840Z,29.14
2019-06-26T06:52:54.341Z,29.23
2019-06-26T06:55:23.421Z,29.39
2019-06-26T06:57:53.511Z,29.77
2019-06-26T07:00:23.043Z,29.94
2019-06-26T07:02:51.081Z,29.99
2019-06-26T07:05:20.835Z,30.39
2019-06-26T07:07:49.320Z,30.08
2019-06-26T07:10:17.594Z,29.97
2019-06-26T07:12:45.603Z,30.13
2019-06-26T07:15:15.670Z,30.01
2019-06-26T07:17:44.879Z,30.23
2019-06-26T07:20:13.965Z,30.30
2019-06-26T07:22:41.819Z,30.61
2019-06-26T07:25:09.505Z,30.76
2019-06-26T07:27:37.957Z,31.12
2019-06-26T07:30:06.403Z,31.04
2019-06-26T07:32:34.535Z,31.73
2019-06-26T07:35:02.987Z,31.17
2019-06-26T07:37:30.845Z,31.23
2019-06-26T07:40:02.061Z,31.07
2019-06-26T07:42:28.462Z,31.86
2019-06-26T07:44:56.549Z,31.85
2019-06-26T07:47:41.567Z,31.88
2019-06-26T07:49:55.023Z,31.88
2019-06-26T07:52:23.166Z,32.23
2019-06-26T07:54:51.661Z,32.67
2019-06-26T07:57:19.618Z,32.71
2019-06-26T07:59:47.907Z,32.94
2019-06-26T08:02:15.895Z,32.94
2019-06-26T08:04:45.176Z,33.24
2019-06-26T08:07:13.162Z,32.88
2019-06-26T08:09:42.217Z,32.81
2019-06-26T08:12:10.598Z,32.63
2019-06-26T08:14:38.711Z,32.59
2019-06-26T08:17:06.737Z,32.44
2019-06-26T08:19:34.649Z,32.99
2019-06-26T08:22:02.693Z,33.00
2019-06-26T08:24:31.590Z,32.74
2019-06-26T08:27:00.112Z,32.97
2019-06-26T08:29:29.080Z,33.62
2019-06-26T08:31:58.671Z,33.47
2019-06-26T08:34:26.773Z,32.99
2019-06-26T08:36:54.840Z,33.37
2019-06-26T08:39:23.161Z,33.88
2019-06-26T08:41:51.480Z,33.87
2019-06-26T08:44:20.036Z,33.88
2019-06-26T08:46:48.124Z,33.71
2019-06-26T08:49:25.559Z,33.65
2019-06-26T08:51:45.804Z,34.05
2019-06-26T08:54:13.964Z,33.84
2019-06-26T08:56:42.185Z,33.66
2019-06-26T08:59:10.012Z,33.58
2019-06-26T09:01:38.780Z,34.29
2019-06-26T09:04:07.720Z,34.25
2019-06-26T09:06:36.143Z,34.58
2019-06-26T09:09:06.764Z,34.21
2019-06-26T09:11:35.809Z,34.35
2019-06-26T09:14:04.981Z,34.70
2019-06-26T09:16:33.045Z,34.27
2019-06-26T09:19:01.053Z,34.53
2019-06-26T09:21:31.232Z,34.52
2019-06-26T09:23:59.843Z,34.92
2019-06-26T09:26:27.890Z,34.84
2019-06-26T09:28:56.816Z,34.80
2019-06-26T09:31:24.908Z,35.13
2019-06-26T09:33:53.546Z,35.01
2019-06-26T09:36:21.667Z,35.17
2019-06-26T09:38:50.039Z,34.92
2019-06-26T09:41:18.459Z,35.13
2019-06-26T09:43:46.588Z,35.03
2019-06-26T09:46:15.010Z,34.84
2019-06-26T09:48:52.829Z,35.08
2019-06-26T09:51:14.366Z,35.40
2019-06-26T09:53:47.282Z,35.19
2019-06-26T09:56:12.108Z,35.02
2019-06-26T09:58:40.612Z,35.55
2019-06-26T10:01:08.990Z,35.84
2019-06-26T10:03:37.195Z,35.75
2019-06-26T10:06:05.629Z,35.77
2019-06-26T10:08:33.738Z,35.64
2019-06-26T10:11:02.203Z,35.99
2019-06-26T10:13:31.714Z,35.83
2019-06-26T10:16:00.764Z,36.04
2019-06-26T10:18:28.997Z,36.40
2019-06-26T10:20:57.433Z,36.13
2019-06-26T10:23:25.719Z,35.53
2019-06-26T10:25:54.592Z,36.13
2019-06-26T10:28:22.680Z,36.07
2019-06-26T10:30:50.588Z,36.47
2019-06-26T10:33:18.505Z,35.97
2019-06-26T10:35:46.905Z,36.15
2019-06-26T10:38:14.856Z,35.84
2019-06-26T10:40:42.816Z,35.89
2019-06-26T10:43:11.016Z,35.95
2019-06-26T10:45:39.074Z,35.81
2019-06-26T10:48:07.788Z,36.23
2019-06-26T10:50:48.243Z,36.23
2019-06-26T10:53:06.035Z,36.35
2019-06-26T10:55:34.152Z,36.57
2019-06-26T10:58:01.987Z,36.11
2019-06-26T11:00:30.818Z,36.63
2019-06-26T11:02:59.244Z,36.64
2019-06-26T11:05:28.101Z,35.98
2019-06-26T11:07:56.633Z,36.76
2019-06-26T11:10:24.711Z,36.91
2019-06-26T11:12:52.752Z,37.14
2019-06-26T11:15:22.487Z,36.99
2019-06-26T11:17:50.442Z,36.79
2019-06-26T11:20:19.862Z,35.87
2019-06-26T11:22:47.828Z,35.97
2019-06-26T11:25:28.997Z,36.28
2019-06-26T11:27:57.121Z,35.83
2019-06-26T11:30:25.768Z,36.40
2019-06-26T11:32:54.028Z,36.07
2019-06-26T11:35:23.053Z,36.41
2019-06-26T11:37:51.089Z,36.53
2019-06-26T11:40:19.564Z,37.00
2019-06-26T11:42:47.994Z,36.48
2019-06-26T11:45:16.438Z,36.92
2019-06-26T11:47:45.956Z,36.80
2019-06-26T11:50:13.693Z,36.99
2019-06-26T11:52:42.480Z,36.93
2019-06-26T11:55:11.974Z,37.45
2019-06-26T11:57:40.095Z,37.67
2019-06-26T12:00:09.564Z,37.34
2019-06-26T12:02:38.269Z,37.31
2019-06-26T12:05:06.472Z,37.51
2019-06-26T12:07:35.413Z,37.08
2019-06-26T12:10:22.543Z,36.93
2019-06-26T12:13:16.115Z,36.74
2019-06-26T12:15:51.502Z,37.25
2019-06-26T12:18:46.724Z,37.77
2019-06-26T12:21:34.151Z,37.04
2019-06-26T12:24:19.824Z,37.51
2019-06-26T12:26:50.315Z,37.14
2019-06-26T12:29:22.016Z,37.20
2019-06-26T12:31:50.010Z,36.92
2019-06-26T12:34:18.095Z,37.25
2019-06-26T12:36:46.188Z,36.92
2019-06-26T12:39:14.586Z,36.74
2019-06-26T12:41:42.838Z,36.82
2019-06-26T12:44:10.879Z,36.52
2019-06-26T12:46:39.653Z,36.80
2019-06-26T12:49:07.734Z,37.15
2019-06-26T12:51:35.849Z,37.62
2019-06-26T12:54:03.988Z,37.25
2019-06-26T12:56:32.227Z,37.67
2019-06-26T12:59:00.316Z,37.92
2019-06-26T13:01:28.838Z,37.50
2019-06-26T13:03:57.310Z,37.55
2019-06-26T13:06:25.259Z,37.14
2019-06-26T13:08:53.276Z,37.12
2019-06-26T13:11:21.521Z,37.05
2019-06-26T13:14:03.891Z,37.43
2019-06-26T13:16:46.708Z,37.66
2019-06-26T13:19:17.695Z,38.04
2019-06-26T13:21:45.677Z,37.73
2019-06-26T13:24:13.956Z,37.71
2019-06-26T13:26:42.202Z,37.78
2019-06-26T13:29:10.522Z,37.51
2019-06-26T13:31:39.572Z,37.50
2019-06-26T13:34:07.862Z,37.44
2019-06-26T13:36:36.312Z,37.48
2019-06-26T13:39:05.439Z,38.30
2019-06-26T13:41:33.504Z,38.29
2019-06-26T13:44:01.343Z,38.66
2019-06-26T13:46:30.848Z,37.99
2019-06-26T13:48:59.489Z,38.21
2019-06-26T13:51:27.975Z,37.81
2019-06-26T13:53:56.313Z,37.39
2019-06-26T13:56:24.414Z,37.32
2019-06-26T13:58:53.489Z,37.09
2019-06-26T14:01:23.190Z,37.62
2019-06-26T14:03:51.035Z,37.88
2019-06-26T14:06:19.865Z,37.74
2019-06-26T14:08:48.147Z,37.26
2019-06-26T14:11:16.781Z,37.02
2019-06-26T14:13:45.913Z,37.27
2019-06-26T14:16:14.083Z,37.53
2019-06-26T14:18:43.021Z,37.42
2019-06-26T14:21:24.982Z,37.25
2019-06-26T14:23:44.897Z,37.20
2019-06-26T14:26:12.882Z,36.96
2019-06-26T14:28:41.762Z,37.41
2019-06-26T14:31:10.340Z,37.38
2019-06-26T14:33:40.677Z,37.93
2019-06-26T14:36:08.813Z,38.40
2019-06-26T14:38:37.241Z,38.96
2019-06-26T14:41:05.446Z,38.80
2019-06-26T14:43:33.683Z,38.43
2019-06-26T14:46:02.301Z,38.54
2019-06-26T14:48:30.379Z,37.63
2019-06-26T14:50:58.465Z,37.63
2019-06-26T14:53:27.429Z,38.28
2019-06-26T14:55:56.860Z,38.43
2019-06-26T14:58:26.465Z,38.49
2019-06-26T15:00:54.008Z,38.18
2019-06-26T15:03:23.025Z,38.30
2019-06-26T15:05:51.475Z,38.12
2019-06-26T15:08:20.287Z,38.44
2019-06-26T15:10:48.833Z,38.17
2019-06-26T15:13:17.639Z,38.32
2019-06-26T15:15:47.358Z,37.57
2019-06-26T15:18:14.740Z,37.80
2019-06-26T15:20:43.432Z,38.28
2019-06-26T15:23:13.070Z,38.05
2019-06-26T15:25:41.286Z,38.16
2019-06-26T15:28:12.000Z,38.21
2019-06-26T15:30:40.495Z,38.34
2019-06-26T15:33:08.543Z,38.65
2019-06-26T15:35:36.622Z,37.85
2019-06-26T15:38:04.990Z,37.61
2019-06-26T15:40:33.907Z,37.84
2019-06-26T15:43:01.838Z,37.63
2019-06-26T15:45:30.544Z,37.13
2019-06-26T15:47:59.054Z,37.39
2019-06-26T15:50:27.489Z,37.50
2019-06-26T15:52:55.579Z,37.57
2019-06-26T15:55:23.621Z,37.76
2019-06-26T15:57:51.976Z,37.48
2019-06-26T16:00:20.293Z,37.26
2019-06-26T16:02:49.091Z,37.55
2019-06-26T16:05:17.388Z,37.88
2019-06-26T16:07:45.671Z,37.52
2019-06-26T16:10:13.998Z,37.45
2019-06-26T16:12:42.073Z,37.42
2019-06-26T16:15:12.039Z,37.21
2019-06-26T16:17:50.117Z,37.16
2019-06-26T16:20:18.698Z,37.42
2019-06-26T16:22:46.962Z,37.74
2019-06-26T16:25:15.375Z,38.30
2019-06-26T16:27:43.809Z,37.88
2019-06-26T16:30:12.308Z,37.89
2019-06-26T16:32:41.374Z,37.84
2019-06-26T16:35:12.216Z,38.43
2019-06-26T16:37:39.744Z,38.64
2019-06-26T16:40:07.947Z,38.93
2019-06-26T16:42:36.367Z,39.05
2019-06-26T16:45:05.106Z,39.26
2019-06-26T16:47:33.839Z,38.78
2019-06-26T16:50:01.757Z,38.97
2019-06-26T16:52:47.472Z,38.97
2019-06-26T16:55:01.954Z,39.16
2019-06-26T16:57:31.494Z,39.25
2019-06-26T17:00:09.313Z,39.65
2019-06-26T17:02:29.710Z,39.61
2019-06-26T17:04:58.166Z,39.72
2019-06-26T17:07:28.011Z,39.30
2019-06-26T17:09:56.197Z,39.44
2019-06-26T17:12:24.147Z,39.50
2019-06-26T17:14:52.667Z,39.75
2019-06-26T17:17:20.625Z,39.65
2019-06-26T17:19:49.664Z,40.13
2019-06-26T17:22:18.089Z,39.76
2019-06-26T17:24:46.743Z,40.01
2019-06-26T17:27:14.590Z,39.77
2019-06-26T17:29:43.296Z,40.01
2019-06-26T17:32:11.817Z,39.63
2019-06-26T17:34:40.303Z,39.66
2019-06-26T17:37:08.380Z,40.02
2019-06-26T17:39:37.926Z,39.74
2019-06-26T17:42:06.115Z,39.71
2019-06-26T17:44:34.231Z,40.13
2019-06-26T17:47:05.267Z,40.31
2019-06-26T17:49:32.197Z,40.31
2019-06-26T17:52:00.903Z,39.93
2019-06-26T17:54:29.755Z,39.79
2019-06-26T17:56:58.376Z,39.67
2019-06-26T17:59:27.957Z,39.37
2019-06-26T18:01:56.562Z,39.21
2019-06-26T18:04:25.030Z,39.17
2019-06-26T18:06:53.932Z,38.89
2019-06-26T18:09:23.766Z,39.59
2019-06-26T18:11:55.692Z,39.76
2019-06-26T18:14:23.808Z,39.96
2019-06-26T18:16:52.019Z,39.50
2019-06-26T18:19:20.527Z,38.75
2019-06-26T18:21:48.497Z,37.12
2019-06-26T18:24:16.590Z,36.68
2019-06-26T18:26:44.605Z,36.34
2019-06-26T18:29:12.789Z,36.40
2019-06-26T18:31:40.836Z,36.37
2019-06-26T18:34:08.930Z,36.23
2019-06-26T18:36:37.047Z,35.22
2019-06-26T18:39:07.175Z,34.44
2019-06-26T18:41:35.721Z,33.91
2019-06-26T18:44:05.337Z,33.58
2019-06-26T18:46:33.450Z,33.04
2019-06-26T18:49:02.208Z,32.94
2019-06-26T18:51:30.755Z,32.74
2019-06-26T18:54:01.102Z,32.45
2019-06-26T18:56:29.161Z,32.22
2019-06-26T18:58:57.562Z,32.08
2019-06-26T19:01:26.337Z,31.77
2019-06-26T19:03:54.994Z,31.54
2019-06-26T19:06:23.229Z,31.44
2019-06-26T19:08:51.844Z,31.12
2019-06-26T19:11:20.613Z,30.70
2019-06-26T19:13:49.110Z,30.30
2019-06-26T19:16:18.452Z,29.99
2019-06-26T19:18:46.890Z,29.65
2019-06-26T19:21:16.186Z,29.65
2019-06-26T19:23:44.569Z,29.74
2019-06-26T19:26:12.993Z,29.66
2019-06-26T19:28:41.239Z,29.54
2019-06-26T19:31:09.428Z,29.54
2019-06-26T19:33:39.056Z,29.44
2019-06-26T19:36:07.448Z,29.36
2019-06-26T19:38:36.482Z,29.29
2019-06-26T19:41:08.391Z,29.20
2019-06-26T19:43:35.508Z,29.07
2019-06-26T19:46:05.085Z,28.97
2019-06-26T19:48:33.536Z,28.83
2019-06-26T19:51:01.556Z,28.73
2019-06-26T19:53:30.480Z,28.62
2019-06-26T19:55:59.373Z,28.50
2019-06-26T19:58:27.585Z,28.44
2019-06-26T20:00:55.917Z,28.39
2019-06-26T20:03:23.750Z,28.35
2019-06-26T20:05:52.559Z,28.24
2019-06-26T20:08:20.908Z,28.24
2019-06-26T20:10:49.031Z,28.27
2019-06-26T20:13:16.964Z,28.26
2019-06-26T20:15:45.561Z,28.21
2019-06-26T20:18:14.177Z,28.08
2019-06-26T20:20:42.692Z,28.06
2019-06-26T20:23:10.559Z,28.02
2019-06-26T20:25:38.642Z,28.09
2019-06-26T20:28:06.747Z,28.07
2019-06-26T20:30:35.187Z,28.01
2019-06-26T20:33:03.527Z,27.94
2019-06-26T20:35:40.669Z,27.92
2019-06-26T20:38:08.803Z,27.88
2019-06-26T20:40:37.174Z,27.87
2019-06-26T20:43:05.382Z,27.78
2019-06-26T20:45:33.486Z,27.71
2019-06-26T20:48:02.424Z,27.66
2019-06-26T20:50:30.624Z,27.62
2019-06-26T20:52:59.157Z,27.25
2019-06-26T20:55:27.471Z,27.07
2019-06-26T20:57:56.237Z,26.96
2019-06-26T21:00:24.838Z,26.99
2019-06-26T21:02:54.297Z,26.99
2019-06-26T21:05:22.720Z,27.05
2019-06-26T21:07:51.232Z,27.03
2019-06-26T21:10:19.649Z,26.91
2019-06-26T21:12:48.121Z,26.56
2019-06-26T21:15:16.156Z,26.31
2019-06-26T21:17:44.507Z,26.22
2019-06-26T21:20:13.048Z,26.14
2019-06-26T21:22:43.408Z,25.92
2019-06-26T21:28:18.788Z,25.74
2019-06-26T21:30:46.785Z,25.76
2019-06-26T21:33:15.242Z,25.72
2019-06-26T21:35:44.165Z,25.72
2019-06-26T21:38:12.209Z,25.70
2019-06-26T21:40:40.916Z,25.62
2019-06-26T21:43:09.261Z,25.62
2019-06-26T21:45:37.540Z,25.63
2019-06-26T21:48:05.655Z,25.62
2019-06-26T21:50:34.594Z,25.73
2019-06-26T21:53:03.130Z,25.75
2019-06-26T21:55:34.671Z,25.76
2019-06-26T21:58:21.055Z,25.79
2019-06-26T22:01:07.632Z,25.85
2019-06-26T22:03:53.975Z,25.83
2019-06-26T22:06:24.719Z,25.84
2019-06-26T22:09:10.163Z,25.82
2019-06-26T22:11:40.363Z,25.69
2019-06-26T22:14:09.108Z,25.60
2019-06-26T22:16:37.121Z,25.57
2019-06-26T22:19:05.269Z,25.47
2019-06-26T22:21:34.800Z,25.50
2019-06-26T22:24:02.702Z,25.50
2019-06-26T22:26:30.537Z,25.43
2019-06-26T22:28:58.638Z,25.45
2019-06-26T22:31:26.499Z,25.48
2019-06-26T22:33:55.622Z,25.47
2019-06-26T22:36:23.540Z,25.54
2019-06-26T22:38:51.653Z,25.47
2019-06-26T22:41:19.829Z,25.47
2019-06-26T22:43:48.601Z,25.36
2019-06-26T22:46:18.555Z,25.42
2019-06-26T22:48:46.917Z,25.47
2019-06-26T22:51:15.093Z,25.46
2019-06-26T22:53:43.049Z,25.44
2019-06-26T22:56:11.082Z,25.29
2019-06-26T22:58:39.163Z,25.10
2019-06-26T23:01:07.299Z,25.14
2019-06-26T23:03:35.514Z,25.16
2019-06-26T23:06:04.897Z,25.15
2019-06-26T23:08:32.871Z,25.17
2019-06-26T23:11:01.269Z,25.18
2019-06-26T23:13:29.754Z,25.17
2019-06-26T23:15:58.658Z,25.12
2019-06-26T23:18:26.788Z,25.08
2019-06-26T23:20:56.230Z,25.08
2019-06-26T23:23:25.036Z,25.08
2019-06-26T23:25:54.099Z,25.04
2019-06-26T23:28:22.379Z,24.88
2019-06-26T23:30:50.315Z,24.83
2019-06-26T23:33:18.221Z,24.77
2019-06-26T23:35:46.280Z,24.71
2019-06-26T23:38:16.012Z,24.61
2019-06-26T23:40:43.946Z,24.66
2019-06-26T23:43:12.018Z,24.63
2019-06-26T23:45:40.230Z,24.60
2019-06-26T23:48:08.609Z,24.56
2019-06-26T23:50:36.580Z,24.60
2019-06-26T23:53:05.036Z,24.56
2019-06-26T23:55:33.114Z,24.50
2019-06-26T23:58:01.101Z,24.56
